^^
Saratoga-Weather Station Historical Data
Daily Summary for March 19, 2021 Units:  Both    English   Metric
Daily Weekly Monthly Yearly Custom
  High: Low: Average:
Temperature: 70.3 °F /  21.3 °C 62.6 °F /  17 °C 65.8 °F /  18.8 °C
Dew Point: 62.1 °F /  16.7 °C 59.4 °F /  15.2 °C 60.4 °F /  15.8 °C
Humidity: 89% 75% 83%
Wind Speed: 4.9mph /  7.9km/h - 0.6mph /  1km/h
Wind Gust: 6mph /  9.7km/h - -
Wind- - SSW
Pressure: 30.1 in /  1019.3 hPa 30.1 in /  1019.0 hPa -
Precipitation: 0 in /  0.0 mm    
Historical Graphs
 
 
Tabular Data for March 19, 2021
Time Temperature Dew Point Pressure Wind Wind Speed Wind Gust Humidity Rainfall Rate (Hourly) solar
00:00 70.3 °F /  21.3 °C 62.1 °F /  16.7 °C 30.1in /  1019.3hPa ESE 0.9mph /  1.4km/h 4mph /  6.4km/h 75% 0in /  0.0mm 0 W/m2
00:05 70 °F /  21.1 °C 61.7 °F /  16.5 °C 30.1in /  1019.3hPa SE 0.9mph /  1.4km/h 1mph /  1.6km/h 75% 0in /  0.0mm 0 W/m2
00:10 69.6 °F /  20.9 °C 61.7 °F /  16.5 °C 30.1in /  1019.3hPa SE 0.9mph /  1.4km/h 1mph /  1.6km/h 76% 0in /  0.0mm 0 W/m2
00:15 69.4 °F /  20.8 °C 61.5 °F /  16.4 °C 30.1in /  1019.3hPa Calm     76% 0in /  0.0mm 0 W/m2
00:20 69.3 °F /  20.7 °C 61.7 °F /  16.5 °C 30.1in /  1019.3hPa SE 0.9mph /  1.4km/h 2mph /  3.2km/h 77% 0in /  0.0mm 0 W/m2
00:25 68.9 °F /  20.5 °C 61.3 °F /  16.3 °C 30.1in /  1019.3hPa Calm   2mph /  3.2km/h 77% 0in /  0.0mm 0 W/m2
00:30 68.5 °F /  20.3 °C 61.3 °F /  16.3 °C 30.1in /  1019.3hPa Calm   1mph /  1.6km/h 78% 0in /  0.0mm 0 W/m2
00:35 68.4 °F /  20.2 °C 61.5 °F /  16.4 °C 30.1in /  1019.3hPa East 2.9mph /  4.7km/h 4mph /  6.4km/h 79% 0in /  0.0mm 0 W/m2
00:40 68.4 °F /  20.2 °C 61.5 °F /  16.4 °C 30.1in /  1019.3hPa East 0.9mph /  1.4km/h 2mph /  3.2km/h 79% 0in /  0.0mm 0 W/m2
00:45 68.2 °F /  20.1 °C 61.3 °F /  16.3 °C 30.1in /  1019.3hPa Calm   4mph /  6.4km/h 79% 0in /  0.0mm 0 W/m2
00:50 68 °F /  20 °C 61.5 °F /  16.4 °C 30.1in /  1019.3hPa East 0.9mph /  1.4km/h 1mph /  1.6km/h 80% 0in /  0.0mm 0 W/m2
00:55 67.8 °F /  19.9 °C 61.3 °F /  16.3 °C 30.1in /  1019.3hPa Calm   2mph /  3.2km/h 80% 0in /  0.0mm 0 W/m2
01:00 67.6 °F /  19.8 °C 61.2 °F /  16.2 °C 30.1in /  1019.3hPa SSW 0.9mph /  1.4km/h 2mph /  3.2km/h 80% 0in /  0.0mm 0 W/m2
01:05 67.5 °F /  19.7 °C 61.3 °F /  16.3 °C 30.1in /  1019.3hPa SW 0.9mph /  1.4km/h 3mph /  4.8km/h 81% 0in /  0.0mm 0 W/m2
01:11 67.6 °F /  19.8 °C 61.5 °F /  16.4 °C 30.1in /  1019.3hPa Calm   1mph /  1.6km/h 81% 0in /  0.0mm 0 W/m2
01:16 67.6 °F /  19.8 °C 61.5 °F /  16.4 °C 30.1in /  1019.3hPa SW 0.9mph /  1.4km/h 2mph /  3.2km/h 81% 0in /  0.0mm 0 W/m2
01:21 67.6 °F /  19.8 °C 61.5 °F /  16.4 °C 30.1in /  1019.3hPa Calm   1mph /  1.6km/h 81% 0in /  0.0mm 0 W/m2
01:26 67.6 °F /  19.8 °C 61.2 °F /  16.2 °C 30.1in /  1019.3hPa WNW 0.9mph /  1.4km/h 2mph /  3.2km/h 80% 0in /  0.0mm 0 W/m2
01:31 67.8 °F /  19.9 °C 61.3 °F /  16.3 °C 30.1in /  1019.0hPa Calm   5mph /  8km/h 80% 0in /  0.0mm 0 W/m2
01:36 68.2 °F /  20.1 °C 61.3 °F /  16.3 °C 30.1in /  1019.0hPa SSW 0.9mph /  1.4km/h 2mph /  3.2km/h 79% 0in /  0.0mm 0 W/m2
01:41 68.2 °F /  20.1 °C 61.3 °F /  16.3 °C 30.1in /  1019.3hPa South 0.9mph /  1.4km/h 5mph /  8km/h 79% 0in /  0.0mm 0 W/m2
01:46 68.2 °F /  20.1 °C 61.3 °F /  16.3 °C 30.1in /  1019.3hPa Calm   3mph /  4.8km/h 79% 0in /  0.0mm 0 W/m2
01:51 68.2 °F /  20.1 °C 61.3 °F /  16.3 °C 30.1in /  1019.3hPa SE 4.9mph /  7.9km/h 5mph /  8km/h 79% 0in /  0.0mm 0 W/m2
01:56 68.2 °F /  20.1 °C 61.3 °F /  16.3 °C 30.1in /  1019.3hPa SSE 0.9mph /  1.4km/h 1mph /  1.6km/h 79% 0in /  0.0mm 0 W/m2
02:01 67.8 °F /  19.9 °C 61 °F /  16.1 °C 30.1in /  1019.0hPa Calm   1mph /  1.6km/h 79% 0in /  0.0mm 0 W/m2
02:06 67.8 °F /  19.9 °C 61.3 °F /  16.3 °C 30.1in /  1019.0hPa Calm   1mph /  1.6km/h 80% 0in /  0.0mm 0 W/m2
02:11 67.8 °F /  19.9 °C 61.3 °F /  16.3 °C 30.1in /  1019.3hPa SE 0.9mph /  1.4km/h 1mph /  1.6km/h 80% 0in /  0.0mm 0 W/m2
02:16 67.6 °F /  19.8 °C 61.2 °F /  16.2 °C 30.1in /  1019.3hPa Calm   2mph /  3.2km/h 80% 0in /  0.0mm 0 W/m2
02:21 67.5 °F /  19.7 °C 61.2 °F /  16.2 °C 30.1in /  1019.0hPa Calm   2mph /  3.2km/h 80% 0in /  0.0mm 0 W/m2
02:26 67.5 °F /  19.7 °C 61.3 °F /  16.3 °C 30.1in /  1019.0hPa NE 0.9mph /  1.4km/h 3mph /  4.8km/h 81% 0in /  0.0mm 0 W/m2
02:31 67.5 °F /  19.7 °C 61.2 °F /  16.2 °C 30.1in /  1019.0hPa Calm   3mph /  4.8km/h 80% 0in /  0.0mm 0 W/m2
02:36 67.5 °F /  19.7 °C 61.2 °F /  16.2 °C 30.1in /  1019.0hPa Calm   1mph /  1.6km/h 80% 0in /  0.0mm 0 W/m2
02:41 67.6 °F /  19.8 °C 61.2 °F /  16.2 °C 30.1in /  1019.0hPa Calm   2mph /  3.2km/h 80% 0in /  0.0mm 0 W/m2
02:46 67.5 °F /  19.7 °C 61.2 °F /  16.2 °C 30.1in /  1019.0hPa Calm   1mph /  1.6km/h 80% 0in /  0.0mm 0 W/m2
02:51 67.5 °F /  19.7 °C 61.2 °F /  16.2 °C 30.1in /  1019.0hPa East 0.9mph /  1.4km/h 2mph /  3.2km/h 80% 0in /  0.0mm 0 W/m2
02:56 67.5 °F /  19.7 °C 61.2 °F /  16.2 °C 30.1in /  1019.0hPa Calm   1mph /  1.6km/h 80% 0in /  0.0mm 0 W/m2
03:01 67.1 °F /  19.5 °C 61.2 °F /  16.2 °C 30.1in /  1019.0hPa South 2mph /  3.2km/h 2mph /  3.2km/h 81% 0in /  0.0mm 0 W/m2
03:06 66.9 °F /  19.4 °C 61 °F /  16.1 °C 30.1in /  1019.0hPa Calm   1mph /  1.6km/h 81% 0in /  0.0mm 0 W/m2
03:11 66.7 °F /  19.3 °C 60.8 °F /  16 °C 30.1in /  1019.0hPa Calm   1mph /  1.6km/h 81% 0in /  0.0mm 0 W/m2
03:16 66.6 °F /  19.2 °C 60.6 °F /  15.9 °C 30.1in /  1019.0hPa Calm   1mph /  1.6km/h 81% 0in /  0.0mm 0 W/m2
03:21 66.6 °F /  19.2 °C 61 °F /  16.1 °C 30.1in /  1019.0hPa North 0.9mph /  1.4km/h 3mph /  4.8km/h 82% 0in /  0.0mm 0 W/m2
03:26 66.6 °F /  19.2 °C 61 °F /  16.1 °C 30.1in /  1019.0hPa North 4mph /  6.4km/h 4mph /  6.4km/h 82% 0in /  0.0mm 0 W/m2
03:31 66.6 °F /  19.2 °C 61 °F /  16.1 °C 30.1in /  1019.0hPa NW 0.9mph /  1.4km/h 1mph /  1.6km/h 82% 0in /  0.0mm 0 W/m2
03:36 66.4 °F /  19.1 °C 60.8 °F /  16 °C 30.1in /  1019.0hPa Calm     82% 0in /  0.0mm 0 W/m2
03:41 66 °F /  18.9 °C 60.6 °F /  15.9 °C 30.1in /  1019.0hPa Calm   3mph /  4.8km/h 83% 0in /  0.0mm 0 W/m2
03:46 66 °F /  18.9 °C 60.6 °F /  15.9 °C 30.1in /  1019.0hPa Calm   4mph /  6.4km/h 83% 0in /  0.0mm 0 W/m2
03:51 66 °F /  18.9 °C 60.6 °F /  15.9 °C 30.1in /  1019.0hPa WNW 0.9mph /  1.4km/h 6mph /  9.7km/h 83% 0in /  0.0mm 0 W/m2
03:56 66 °F /  18.9 °C 60.6 °F /  15.9 °C 30.1in /  1019.0hPa Calm   2mph /  3.2km/h 83% 0in /  0.0mm 0 W/m2
04:01 66 °F /  18.9 °C 60.6 °F /  15.9 °C 30.1in /  1019.0hPa East 0.9mph /  1.4km/h 3mph /  4.8km/h 83% 0in /  0.0mm 0 W/m2
04:06 65.8 °F /  18.8 °C 60.6 °F /  15.9 °C 30.1in /  1019.0hPa NW 2mph /  3.2km/h 3mph /  4.8km/h 83% 0in /  0.0mm 0 W/m2
04:11 65.8 °F /  18.8 °C 60.6 °F /  15.9 °C 30.1in /  1019.0hPa West 0.9mph /  1.4km/h 1mph /  1.6km/h 83% 0in /  0.0mm 0 W/m2
04:16 65.7 °F /  18.7 °C 60.4 °F /  15.8 °C 30.1in /  1019.0hPa SW 0.9mph /  1.4km/h 3mph /  4.8km/h 83% 0in /  0.0mm 0 W/m2
04:21 65.5 °F /  18.6 °C 60.3 °F /  15.7 °C 30.1in /  1019.0hPa Calm   2mph /  3.2km/h 83% 0in /  0.0mm 0 W/m2
04:26 65.5 °F /  18.6 °C 60.3 °F /  15.7 °C 30.1in /  1019.0hPa Calm   2mph /  3.2km/h 83% 0in /  0.0mm 0 W/m2
04:31 65.3 °F /  18.5 °C 60.3 °F /  15.7 °C 30.1in /  1019.0hPa Calm   2mph /  3.2km/h 84% 0in /  0.0mm 0 W/m2
04:36 65.1 °F /  18.4 °C 60.1 °F /  15.6 °C 30.1in /  1019.0hPa West 0.9mph /  1.4km/h 3mph /  4.8km/h 84% 0in /  0.0mm 0 W/m2
04:41 65.1 °F /  18.4 °C 60.1 °F /  15.6 °C 30.1in /  1019.0hPa Calm   1mph /  1.6km/h 84% 0in /  0.0mm 0 W/m2
04:46 64.9 °F /  18.3 °C 59.9 °F /  15.5 °C 30.1in /  1019.0hPa WSW 0.9mph /  1.4km/h 3mph /  4.8km/h 84% 0in /  0.0mm 0 W/m2
04:51 64.8 °F /  18.2 °C 60.1 °F /  15.6 °C 30.1in /  1019.0hPa NW 0.9mph /  1.4km/h 1mph /  1.6km/h 85% 0in /  0.0mm 0 W/m2
04:56 64.8 °F /  18.2 °C 60.1 °F /  15.6 °C 30.1in /  1019.0hPa West 0.9mph /  1.4km/h 2mph /  3.2km/h 85% 0in /  0.0mm 0 W/m2
05:01 64.6 °F /  18.1 °C 59.9 °F /  15.5 °C 30.1in /  1019.0hPa Calm   1mph /  1.6km/h 85% 0in /  0.0mm 0 W/m2
05:06 64.2 °F /  17.9 °C 59.5 °F /  15.3 °C 30.1in /  1019.0hPa NW 0.9mph /  1.4km/h 2mph /  3.2km/h 85% 0in /  0.0mm 0 W/m2
05:11 64 °F /  17.8 °C 59.7 °F /  15.4 °C 30.1in /  1019.0hPa Calm   1mph /  1.6km/h 86% 0in /  0.0mm 0 W/m2
05:16 63.9 °F /  17.7 °C 59.5 °F /  15.3 °C 30.1in /  1019.0hPa Calm   2mph /  3.2km/h 86% 0in /  0.0mm 0 W/m2
05:21 63.9 °F /  17.7 °C 59.5 °F /  15.3 °C 30.1in /  1019.0hPa Calm     86% 0in /  0.0mm 0 W/m2
05:26 63.7 °F /  17.6 °C 59.7 °F /  15.4 °C 30.1in /  1019.0hPa Calm   2mph /  3.2km/h 87% 0in /  0.0mm 0 W/m2
05:31 63.3 °F /  17.4 °C 59.4 °F /  15.2 °C 30.1in /  1019.0hPa Calm   1mph /  1.6km/h 87% 0in /  0.0mm 0 W/m2
05:36 63.3 °F /  17.4 °C 59.7 °F /  15.4 °C 30.1in /  1019.0hPa Calm   1mph /  1.6km/h 88% 0in /  0.0mm 0 W/m2
05:41 63.1 °F /  17.3 °C 59.5 °F /  15.3 °C 30.1in /  1019.0hPa Calm     88% 0in /  0.0mm 0 W/m2
05:46 63.1 °F /  17.3 °C 59.5 °F /  15.3 °C 30.1in /  1019.0hPa Calm   1mph /  1.6km/h 88% 0in /  0.0mm 0 W/m2
05:51 63.1 °F /  17.3 °C 59.5 °F /  15.3 °C 30.1in /  1019.0hPa Calm   1mph /  1.6km/h 88% 0in /  0.0mm 0 W/m2
05:56 63.1 °F /  17.3 °C 59.5 °F /  15.3 °C 30.1in /  1019.0hPa East 0.9mph /  1.4km/h 1mph /  1.6km/h 88% 0in /  0.0mm 5 W/m2
06:01 63 °F /  17.2 °C 59.4 °F /  15.2 °C 30.1in /  1019.0hPa Calm   2mph /  3.2km/h 88% 0in /  0.0mm 9 W/m2
06:06 63 °F /  17.2 °C 59.7 °F /  15.4 °C 30.1in /  1019.0hPa Calm   2mph /  3.2km/h 89% 0in /  0.0mm 11 W/m2
06:12 62.8 °F /  17.1 °C 59.5 °F /  15.3 °C 30.1in /  1019.0hPa Calm     89% 0in /  0.0mm 12 W/m2
06:17 62.8 °F /  17.1 °C 59.5 °F /  15.3 °C 30.1in /  1019.0hPa Calm     89% 0in /  0.0mm 16 W/m2
06:22 62.6 °F /  17 °C 59.4 °F /  15.2 °C 30.1in /  1019.0hPa Calm     89% 0in /  0.0mm 18 W/m2
06:27 62.8 °F /  17.1 °C 59.5 °F /  15.3 °C 30.1in /  1019.0hPa SSE 0.9mph /  1.4km/h 1mph /  1.6km/h 89% 0in /  0.0mm 21 W/m2
06:32 62.8 °F /  17.1 °C 59.5 °F /  15.3 °C 30.1in /  1019.0hPa NW 2mph /  3.2km/h 2mph /  3.2km/h 89% 0in /  0.0mm 23 W/m2
06:37 62.8 °F /  17.1 °C 59.5 °F /  15.3 °C 30.1in /  1019.0hPa Calm     89% 0in /  0.0mm 25 W/m2
06:42 62.8 °F /  17.1 °C 59.5 °F /  15.3 °C 30.1in /  1019.0hPa Calm   2mph /  3.2km/h 89% 0in /  0.0mm 26 W/m2
06:47 63 °F /  17.2 °C 59.7 °F /  15.4 °C 30.1in /  1019.0hPa Calm   2mph /  3.2km/h 89% 0in /  0.0mm 30 W/m2
06:52 63.1 °F /  17.3 °C 59.9 °F /  15.5 °C 30.1in /  1019.0hPa South 0.9mph /  1.4km/h 1mph /  1.6km/h 89% 0in /  0.0mm 32 W/m2
06:57 63.3 °F /  17.4 °C 59.7 °F /  15.4 °C 30.1in /  1019.0hPa Calm   2mph /  3.2km/h 88% 0in /  0.0mm 35 W/m2
07:02 63.3 °F /  17.4 °C 59.7 °F /  15.4 °C 30.1in /  1019.0hPa Calm     88% 0in /  0.0mm 37 W/m2
07:07 63.3 °F /  17.4 °C 59.7 °F /  15.4 °C 30.1in /  1019.0hPa South 0.9mph /  1.4km/h 1mph /  1.6km/h 88% 0in /  0.0mm 39 W/m2
07:12 63.5 °F /  17.5 °C 59.5 °F /  15.3 °C 30.1in /  1019.0hPa Calm   1mph /  1.6km/h 87% 0in /  0.0mm 40 W/m2
07:17 63.7 °F /  17.6 °C 59.7 °F /  15.4 °C 30.1in /  1019.0hPa Calm     87% 0in /  0.0mm 42 W/m2
07:22 63.9 °F /  17.7 °C 59.5 °F /  15.3 °C 30.1in /  1019.0hPa NW 2mph /  3.2km/h 2mph /  3.2km/h 86% 0in /  0.0mm 44 W/m2
07:27 64 °F /  17.8 °C 59.7 °F /  15.4 °C 30.1in /  1019.0hPa Calm     86% 0in /  0.0mm 47 W/m2
07:32 64.2 °F /  17.9 °C 59.9 °F /  15.5 °C 30.1in /  1019.0hPa West 0.9mph /  1.4km/h 1mph /  1.6km/h 86% 0in /  0.0mm 49 W/m2
07:37 64.4 °F /  18 °C 59.7 °F /  15.4 °C 30.1in /  1019.0hPa East 2mph /  3.2km/h 3mph /  4.8km/h 85% 0in /  0.0mm 51 W/m2
07:42 64.6 °F /  18.1 °C 59.9 °F /  15.5 °C 30.1in /  1019.0hPa ESE 2.9mph /  4.7km/h 4mph /  6.4km/h 85% 0in /  0.0mm 53 W/m2
07:47 64.8 °F /  18.2 °C 59.9 °F /  15.5 °C 30.1in /  1019.0hPa WNW 0.9mph /  1.4km/h 2mph /  3.2km/h 84% 0in /  0.0mm 54 W/m2
07:52 64.9 °F /  18.3 °C 59.9 °F /  15.5 °C 30.1in /  1019.0hPa NW 3mph /  4.8km/h 3mph /  4.8km/h 84% 0in /  0.0mm 62 W/m2
07:57 65.1 °F /  18.4 °C 60.1 °F /  15.6 °C 30.1in /  1019.0hPa NW 0.9mph /  1.4km/h 3mph /  4.8km/h 84% 0in /  0.0mm 98 W/m2
08:02 65.7 °F /  18.7 °C 60.4 °F /  15.8 °C 30.1in /  1019.0hPa WNW 0.9mph /  1.4km/h 3mph /  4.8km/h 83% 0in /  0.0mm 183 W/m2
08:07 65.8 °F /  18.8 °C 60.3 °F /  15.7 °C 30.1in /  1019.0hPa North 2mph /  3.2km/h 3mph /  4.8km/h 82% 0in /  0.0mm 104 W/m2
08:12 66.2 °F /  19 °C 60.6 °F /  15.9 °C 30.1in /  1019.0hPa Calm   2mph /  3.2km/h 82% 0in /  0.0mm 70 W/m2
08:17 66.6 °F /  19.2 °C 60.6 °F /  15.9 °C 30.1in /  1019.0hPa Calm   5mph /  8km/h 81% 0in /  0.0mm 67 W/m2
Juneau County Weather
Compliments of Weather Underground - 4 mb